North Potrero (448) Station Data

Red Flag Warning: No
Fire Weather Zone: 250
SDGE Region: Mountain Empire
Lat/Lon: 32.63/-116.585

Observations

Time Wind Speed/Gust Temp(F) RH Fuel Moist Fuel Temp(F) Dewpt(F) Tmax(F) Tmin(F) Accum Precip 10-min Precip SL Press(mb)
6/27 5:00pm 250 11 G 16 90° 10% - - 25° 94.7° 69.4° - - -
6/27 4:50pm 245 10 G 17 91° 10% - - 27° 94.7° 69.4° - - -
6/27 4:40pm 249 10 G 17 91° 10% - - 27° 94.7° 69.4° - - -
6/27 4:30pm 251 9 G 17 91° 10% - - 26° 94.7° 69.4° - - -
6/27 4:20pm 239 11 G 15 91° 11% - - 29° 94.7° 69.4° - - -
6/27 4:10pm 238 11 G 17 91° 10% - - 27° 94.7° 69.4° - - -
6/27 4:00pm 239 13 G 18 91° 10% - - 27° 94.7° 69.4° - - -
6/27 3:50pm 255 10 G 17 92° 9% - - 26° 94.7° 69.4° - - -
6/27 3:40pm 245 11 G 17 92° 10% - - 27° 94.7° 69.4° - - -
6/27 3:30pm 252 11 G 20 91° 9% - - 25° 94.7° 69.4° - - -
6/27 3:20pm 262 9 G 15 92° 10% - - 28° 94.7° 69.4° - - -
6/27 3:10pm 246 11 G 17 92° 9% - - 26° 94.7° 69.4° - - -
6/27 3:00pm 233 10 G 17 92° 10% - - 27° 94.7° 69.4° - - -
6/27 2:50pm 238 10 G 16 93° 10% - - 27° 94.7° 69.4° - - -
6/27 2:40pm 245 11 G 17 93° 9% - - 26° 94.7° 69.4° - - -
6/27 2:30pm 242 10 G 17 93° 9% - - 26° 94.7° 69.4° - - -
6/27 2:20pm 234 11 G 18 93° 10% - - 27° 94.7° 69.4° - - -
6/27 2:10pm 228 11 G 18 92° 10% - - 27° 94.7° 69.4° - - -
6/27 2:00pm 233 13 G 20 92° 10% - - 27° 94.7° 69.4° - - -
6/27 1:50pm 256 10 G 18 93° 9% - - 26° 94.7° 69.4° - - -
6/27 1:40pm 248 11 G 18 93° 10% - - 28° 94.7° 69.4° - - -
6/27 1:30pm 241 11 G 18 93° 10% - - 29° 94.7° 69.4° - - -
6/27 1:20pm 261 10 G 17 93° 10% - - 29° 94.7° 69.4° - - -
6/27 1:10pm 240 12 G 20 93° 10% - - 28° 94.7° 69.4° - - -
6/27 1:00pm 233 13 G 18 92° 9% - - 26° 94.7° 69.4° - - -
6/27 12:50pm 230 13 G 20 92° 9% - - 25° 94.7° 69.4° - - -
6/27 12:40pm 226 13 G 20 92° 9% - - 26° 94.7° 69.4° - - -
6/27 12:30pm 231 9 G 19 93° 9% - - 27° 94.7° 69.4° - - -
6/27 12:20pm 228 11 G 20 92° 9% - - 26° 93.5° 69.4° - - -
6/27 12:10pm 234 11 G 19 92° 9% - - 26° 93.2° 69.4° - - -
6/27 12:00pm 230 12 G 18 92° 9% - - 25° 93.2° 69.4° - - -
6/27 11:50am 224 13 G 23 92° 9% - - 24° 93.2° 69.4° - - -
6/27 11:40am 229 13 G 19 92° 10% - - 27° 92.8° 69.4° - - -
6/27 11:30am 232 12 G 17 91° 10% - - 27° 92.8° 69.4° - - -
6/27 11:20am 245 10 G 18 92° 10% - - 27° 92.8° 69.4° - - -
6/27 11:10am 245 9 G 15 91° 10% - - 27° 92.1° 69.4° - - -
6/27 11:00am 239 8 G 14 90° 10% - - 27° 91.2° 69.4° - - -
6/27 10:50am 255 8 G 14 90° 10% - - 27° 90.9° 69.4° - - -
6/27 10:40am 246 7 G 13 90° 10% - - 27° 90.7° 69.4° - - -
6/27 10:30am 237 8 G 16 89° 11% - - 27° 89.6° 69.4° - - -
6/27 10:20am 241 8 G 14 89° 11% - - 27° 89.6° 69.4° - - -
6/27 10:10am 205 7 G 12 88° 11% - - 27° 89.3° 69.4° - - -
6/27 10:00am 202 6 G 13 87° 11% - - 27° 89.3° 69.4° - - -
6/27 9:50am 234 7 G 15 88° 11% - - 27° 89.3° 69.4° - - -
6/27 9:40am 279 6 G 10 88° 10% - - 25° 88.4° 69.4° - - -
6/27 9:30am 279 6 G 11 87° 10% - - 24° 88.4° 69.4° - - -
6/27 9:20am 298 6 G 12 88° 10% - - 24° 88.4° 69.4° - - -
6/27 9:10am 283 5 G 8 87° 10% - - 24° 88.4° 69.4° - - -
6/27 9:00am 266 6 G 11 87° 10% - - 23° 87.3° 69.4° - - -
6/27 8:50am 298 3 G 7 87° 11% - - 25° 87.1° 69.4° - - -
6/27 8:40am 304 5 G 10 86° 11% - - 24° 86.9° 69.4° - - -
6/27 8:30am 295 6 G 9 86° 10% - - 24° 86.5° 69.4° - - -
6/27 8:20am 283 3 G 7 85° 12% - - 28° 86.5° 69.4° - - -
6/27 8:10am 291 3 G 6 84° 13% - - 28° 86.5° 69.4° - - -
6/27 8:00am 319 2 G 4 85° 13% - - 29° 86.5° 69.4° - - -
6/27 7:50am 27 0 G 2 85° 14% - - 31° 86.5° 69.4° - - -
6/27 7:40am 139 0 G 2 83° 17% - - 33° 83.4° 69.4° - - -
6/27 7:30am 39 1 G 2 81° 17% - - 32° 82.6° 69.4° - - -
6/27 7:20am 20 2 G 2 79° 16% - - 29° 80.9° 69.4° - - -
6/27 7:10am 21 2 G 3 78° 16% - - 28° 80.9° 69.4° - - -
6/27 7:00am 20 3 G 4 76° 16% - - 26° 80.9° 69.4° - - -
6/27 6:50am 9 4 G 4 74° 17% - - 26° 80.9° 69.4° - - -
6/27 6:40am 7 3 G 4 73° 17% - - 26° 80.9° 69.4° - - -
6/27 6:30am 16 3 G 4 73° 17% - - 26° 80.9° 69.4° - - -
6/27 6:20am 32 3 G 3 73° 17% - - 26° 80.9° 69.4° - - -
6/27 6:10am 359 3 G 4 72° 18% - - 26° 80.9° 69.4° - - -
6/27 6:00am 2 2 G 3 71° 19% - - 26° 80.9° 69.4° - - -
6/27 5:50am 34 2 G 2 71° 19% - - 26° 80.9° 69.4° - - -
6/27 5:40am 43 3 G 4 71° 19% - - 26° 80.9° 69.4° - - -
6/27 5:30am 11 2 G 3 70° 19% - - 26° 80.9° 69.4° - - -
6/27 5:20am 36 1 G 2 71° 18% - - 26° 80.9° 70.2° - - -
6/27 5:10am 18 0 G 1 72° 17% - - 26° 80.9° 71° - - -
6/27 5:00am 33 1 G 1 72° 18% - - 26° 80.9° 71° - - -
6/27 4:50am 304 1 G 2 72° 18% - - 26° 80.9° 71° - - -
6/27 4:40am 311 1 G 2 73° 17% - - 26° 80.9° 71° - - -
6/27 4:30am 336 1 G 2 76° 15% - - 25° 80.9° 71° - - -
6/27 4:20am 349 3 G 3 75° 16% - - 26° 80.9° 71° - - -
6/27 4:10am 348 3 G 4 72° 18% - - 26° 80.9° 71° - - -
6/27 4:00am 356 3 G 4 73° 17% - - 25° 80.9° 71° - - -
6/27 3:50am 357 2 G 3 73° 16% - - 25° 80.9° 71.4° - - -
6/27 3:40am 353 2 G 3 74° 16% - - 25° 80.9° 71.9° - - -
6/27 3:30am 13 2 G 3 74° 16% - - 25° 80.9° 72.2° - - -
6/27 3:20am 355 2 G 4 73° 16% - - 25° 80.9° 72.2° - - -
6/27 3:10am 19 2 G 4 74° 16% - - 24° 80.9° 72.4° - - -
6/27 3:00am 11 2 G 4 75° 15% - - 24° 80.9° 72.4° - - -
6/27 2:50am 22 2 G 4 76° 14% - - 23° 80.9° 73.3° - - -
6/27 2:40am 36 3 G 4 75° 14% - - 23° 80.9° 73.3° - - -
6/27 2:30am 32 3 G 4 78° 12% - - 22° 80.9° 75.4° - - -
6/27 2:20am 54 3 G 4 80° 11% - - 21° 80.9° 75.4° - - -
6/27 2:10am 64 5 G 6 80° 11% - - 21° 80.7° 75.4° - - -
6/27 2:00am 54 6 G 6 79° 11% - - 20° 80.7° 75.4° - - -
6/27 1:50am 37 4 G 6 77° 12% - - 21° 80.7° 75.4° - - -
6/27 1:40am 17 4 G 5 76° 13% - - 21° 80.7° 75.4° - - -
6/27 1:30am 21 4 G 6 77° 12% - - 21° 80.7° 75.4° - - -
6/27 1:20am 36 4 G 5 78° 12% - - 21° 80.7° 75.4° - - -
6/27 1:10am 28 4 G 6 77° 13% - - 22° 80.7° 75.4° - - -
6/27 1:00am 12 4 G 5 78° 13% - - 23° 80.7° 75.8° - - -
6/27 12:50am 22 3 G 4 79° 12% - - 22° 80.7° 77.5° - - -
6/27 12:40am 28 3 G 5 80° 12% - - 22° 80.7° 77.5° - - -
6/27 12:30am 35 3 G 5 79° 12% - - 23° 80.6° 77.5° - - -
6/27 12:20am 8 4 G 5 78° 13% - - 24° 80.1° 77.5° - - -
6/27 12:10am 30 5 G 7 79° 13% - - 24° 80.1° 78.6° - - -
6/27 12:00am 39 5 G 7 78° 14% - - 24° 100.8° 74° - - -
6/26 11:50pm 38 5 G 9 77° 14% - - 25° 100.8° 74° - - -
6/26 11:40pm 60 5 G 7 77° 14% - - 25° 100.8° 74° - - -
6/26 11:30pm 49 3 G 6 79° 13% - - 24° 100.8° 74° - - -
6/26 11:20pm 275 4 G 9 79° 13% - - 24° 100.8° 74° - - -
6/26 11:10pm 228 4 G 6 78° 15% - - 26° 100.8° 74° - - -
6/26 11:00pm 232 3 G 6 78° 15% - - 27° 100.8° 74° - - -
6/26 10:50pm 266 3 G 6 77° 17% - - 29° 100.8° 74° - - -
6/26 10:40pm 317 3 G 6 77° 18% - - 30° 100.8° 74° - - -
6/26 10:30pm 345 3 G 5 77° 18% - - 31° 100.8° 74° - - -
6/26 10:20pm 348 4 G 6 77° 19% - - 32° 100.8° 74° - - -
6/26 10:10pm 333 5 G 7 78° 19% - - 33° 100.8° 74° - - -
6/26 10:00pm 330 5 G 6 78° 20% - - 34° 100.8° 74° - - -
6/26 9:50pm 335 5 G 6 77° 22% - - 35° 100.8° 74° - - -
6/26 9:40pm 332 5 G 6 77° 22% - - 36° 100.8° 74° - - -
6/26 9:30pm 332 5 G 7 77° 22% - - 36° 100.8° 74° - - -
6/26 9:20pm 337 4 G 5 78° 21% - - 35° 100.8° 74° - - -
6/26 9:10pm 315 5 G 7 79° 20% - - 34° 100.8° 74° - - -
6/26 9:00pm 315 5 G 8 79° 19% - - 33° 100.8° 74° - - -
6/26 8:50pm 317 5 G 8 80° 18% - - 33° 100.8° 74° - - -
6/26 8:40pm 299 8 G 9 83° 16% - - 32° 100.8° 74° - - -
6/26 8:30pm 300 8 G 11 83° 15% - - 31° 100.8° 74° - - -
6/26 8:20pm 297 7 G 8 84° 15% - - 31° 100.8° 74° - - -
6/26 8:10pm 291 8 G 10 84° 15% - - 32° 100.8° 74° - - -
6/26 8:00pm 292 7 G 9 84° 16% - - 33° 100.8° 74° - - -
6/26 7:50pm 286 7 G 9 86° 15% - - 33° 100.8° 74° - - -
6/26 7:40pm 281 7 G 10 87° 14% - - 33° 100.8° 74° - - -
6/26 7:30pm 280 7 G 11 88° 14% - - 33° 100.8° 74° - - -
6/26 7:20pm 283 8 G 12 89° 13% - - 32° 100.8° 74° - - -
6/26 7:10pm 282 9 G 14 90° 12% - - 31° 100.8° 74° - - -
6/26 7:00pm 281 8 G 14 91° 12% - - 30° 100.8° 74° - - -
6/26 6:50pm 277 8 G 12 91° 12% - - 31° 100.8° 74° - - -
6/26 6:40pm 288 8 G 14 92° 12% - - 33° 100.8° 74° - - -
6/26 6:30pm 285 10 G 16 92° 12% - - 33° 100.8° 74° - - -
6/26 6:20pm 300 12 G 18 93° 11% - - 32° 100.8° 74° - - -
6/26 6:10pm 293 12 G 20 93° 11% - - 31° 100.8° 74° - - -
6/26 6:00pm 293 11 G 16 94° 11% - - 32° 100.8° 74° - - -
6/26 5:50pm 278 12 G 19 94° 11% - - 31° 100.8° 74° - - -
6/26 5:40pm 282 12 G 19 95° 11% - - 31° 100.8° 74° - - -
6/26 5:30pm 292 12 G 21 95° 12% - - 34° 100.8° 74° - - -
6/26 5:20pm 282 11 G 24 95° 12% - - 34° 100.8° 74° - - -
6/26 5:10pm 279 11 G 19 96° 12% - - 34° 100.8° 74° - - -
6/26 5:00pm 280 11 G 20 96° 12% - - 35° 100.8° 74° - - -
6/26 4:50pm 288 12 G 20 96° 12% - - 36° 100.8° 74° - - -
6/26 4:40pm 288 12 G 22 97° 12% - - 36° 100.8° 74° - - -
6/26 4:30pm 302 14 G 22 96° 12% - - 35° 100.8° 74° - - -
6/26 4:20pm 284 14 G 21 97° 12% - - 35° 100.8° 74° - - -
6/26 4:10pm 276 13 G 23 97° 11% - - 34° 100.8° 74° - - -
6/26 4:00pm 277 12 G 20 97° 11% - - 35° 100.8° 74° - - -
6/26 3:50pm 273 13 G 21 97° 12% - - 35° 100.8° 74° - - -
6/26 3:40pm 280 15 G 24 97° 11% - - 34° 100.8° 74° - - -
6/26 3:30pm 283 13 G 21 98° 12% - - 36° 100.8° 74° - - -
6/26 3:20pm 289 15 G 25 97° 11% - - 35° 100.8° 74° - - -
6/26 3:10pm 294 15 G 23 98° 11% - - 35° 100.8° 74° - - -
6/26 3:00pm 293 15 G 23 98° 12% - - 35° 100.8° 74° - - -
6/26 2:50pm 283 14 G 20 98° 11% - - 35° 100.8° 74° - - -
6/26 2:40pm 284 12 G 22 98° 11% - - 36° 100.8° 74° - - -
6/26 2:30pm 289 11 G 18 99° 11% - - 36° 100.8° 74° - - -
6/26 2:20pm 279 14 G 22 98° 11% - - 34° 100.4° 74° - - -
6/26 2:10pm 277 12 G 21 98° 11% - - 34° 100.4° 74° - - -
6/26 2:00pm 275 12 G 21 99° 11% - - 34° 100.4° 74° - - -
6/26 1:50pm 282 12 G 24 98° 11% - - 34° 100.4° 74° - - -
6/26 1:40pm 295 13 G 20 98° 11% - - 34° 100.4° 74° - - -
6/26 1:30pm 284 12 G 19 99° 10% - - 34° 100.4° 74° - - -
6/26 1:20pm 286 12 G 20 98° 11% - - 34° 100.3° 74° - - -
6/26 1:10pm 304 14 G 28 98° 11% - - 34° 100.1° 74° - - -
6/26 1:00pm 311 12 G 19 99° 11% - - 35° 100.1° 74° - - -
6/26 12:50pm 304 14 G 20 98° 11% - - 34° 99.5° 74° - - -
6/26 12:40pm 296 11 G 17 97° 11% - - 34° 99.5° 74° - - -
6/26 12:30pm 303 12 G 21 97° 11% - - 33° 99.5° 74° - - -
6/26 12:20pm 302 13 G 19 96° 11% - - 32° 99.5° 74° - - -
6/26 12:10pm 302 12 G 21 97° 11% - - 32° 99.5° 74° - - -
6/26 12:00pm 295 12 G 17 97° 10% - - 32° 99.5° 74° - - -
6/26 11:50am 292 12 G 18 98° 10% - - 32° 99.5° 74° - - -
6/26 11:40am 299 10 G 18 99° 10% - - 33° 99.5° 74° - - -
6/26 11:30am 295 11 G 20 98° 10% - - 32° 98.6° 74° - - -
6/26 11:20am 297 12 G 19 98° 10% - - 32° 98.6° 74° - - -
6/26 11:10am 257 10 G 18 97° 11% - - 34° 98.2° 74° - - -
6/26 11:00am 277 8 G 18 97° 12% - - 35° 98° 74° - - -
6/26 10:50am 274 7 G 12 97° 12% - - 36° 97.8° 74° - - -
6/26 10:40am 281 8 G 14 96° 12% - - 36° 96.3° 74° - - -
6/26 10:30am 270 7 G 11 94° 13% - - 36° 95.9° 74° - - -
6/26 10:20am 264 7 G 13 94° 13% - - 35° 95.9° 74° - - -
6/26 10:10am 241 7 G 15 94° 13% - - 36° 95.9° 74° - - -
6/26 10:00am 265 7 G 11 95° 13% - - 36° 95.9° 74° - - -
6/26 9:50am 298 6 G 11 95° 13% - - 37° 95.9° 74° - - -
6/26 9:40am 305 6 G 10 94° 14% - - 37° 94.7° 74° - - -
6/26 9:30am 247 4 G 9 93° 16% - - 40° 94.7° 74° - - -
6/26 9:20am 210 3 G 7 92° 16% - - 39° 92.9° 74° - - -
6/26 9:10am 215 3 G 5 92° 15% - - 38° 92.3° 74° - - -
6/26 9:00am 184 2 G 4 91° 17% - - 39° 91.6° 74° - - -
6/26 8:50am 197 2 G 4 89° 18% - - 41° 90.3° 74° - - -
6/26 8:40am 184 2 G 3 87° 20% - - 42° 88.7° 74° - - -
6/26 8:30am 238 1 G 2 86° 22% - - 43° 86.6° 74° - - -
6/26 8:20am 260 0 G 2 85° 27% - - 47° 86° 74° - - -
6/26 8:10am 201 0 G 1 84° 27% - - 47° 86° 74° - - -
6/26 8:00am 207 0 G 1 83° 24% - - 43° 86° 74° - - -
6/26 7:50am 318 0 G 3 85° 21% - - 40° 86° 74° - - -
6/26 7:40am 118 0 G 1 85° 20% - - 39° 86° 74° - - -
6/26 7:30am 348 1 G 1 82° 20% - - 37° 84.2° 74° - - -
6/26 7:20am 328 2 G 3 80° 18% - - 33° 84.2° 74° - - -
6/26 7:10am 360 1 G 2 80° 21% - - 36° 84.2° 74° - - -
6/26 7:00am 2 2 G 3 80° 18% - - 34° 84.2° 74° - - -
6/26 6:50am 44 1 G 3 81° 18% - - 33° 84.2° 74° - - -
6/26 6:40am 17 1 G 2 79° 19% - - 33° 84.2° 74° - - -
6/26 6:30am 350 1 G 2 78° 19% - - 32° 84.2° 74° - - -
6/26 6:20am 6 2 G 3 78° 20% - - 33° 84.2° 74° - - -
6/26 6:10am 76 1 G 2 78° 19% - - 33° 84.2° 74° - - -
6/26 6:00am 78 2 G 3 78° 19% - - 32° 84.2° 74° - - -